Time;durP1;ratioP1;P1;durP2;ratioP2;P2;SDS_P1;SDS_P2;PMS_P1;PMS_P2;Temp;Humidity;BMP_temperature;BMP_pressure;BME280_temperature;BME280_humidity;BME280_pressure;Samples;Min_cycle;Max_cycle;Signal;HPM_P1;HPM_P2
2022/11/21 00:03:12;;;;;;;27.35;14.30;;;;;;;-0.02;84.79;99267.97;10122271;29;20116;-79
2022/11/21 00:08:18;;;;;;;29.40;14.32;;;;;;;-0.01;85.04;99275.78;10117677;29;20049;-78
2022/11/21 00:13:21;;;;;;;28.83;14.63;;;;;;;-0.03;85.02;99275.00;10123298;29;20081;-78
2022/11/21 00:18:24;;;;;;;36.35;17.50;;;;;;;-0.08;84.89;99277.91;10122401;29;20147;-77
2022/11/21 00:23:28;;;;;;;36.25;18.20;;;;;;;-0.09;84.87;99280.63;10123184;29;20056;-78
2022/11/21 00:28:31;;;;;;;36.53;20.00;;;;;;;-0.13;85.14;99292.31;10120393;29;20143;-75
2022/11/21 00:33:34;;;;;;;37.22;17.98;;;;;;;-0.16;85.24;99292.47;10117882;29;20052;-78
2022/11/21 00:38:39;;;;;;;38.65;19.08;;;;;;;-0.18;85.39;99294.34;10105568;29;20037;-78
2022/11/21 00:43:41;;;;;;;35.65;17.80;;;;;;;-0.23;85.17;99280.53;10115705;29;20135;-77
2022/11/21 00:48:44;;;;;;;40.97;19.30;;;;;;;-0.23;84.91;99275.25;10107834;29;20135;-78
2022/11/21 00:53:49;;;;;;;35.85;18.25;;;;;;;-0.24;84.96;99276.19;10118079;29;20053;-78
2022/11/21 00:58:52;;;;;;;38.40;20.15;;;;;;;-0.21;85.41;99270.75;10126954;29;20100;-78
2022/11/21 01:03:55;;;;;;;42.03;19.48;;;;;;;-0.16;85.72;99276.63;10111686;29;20578;-78
2022/11/21 01:08:59;;;;;;;37.00;19.10;;;;;;;-0.17;85.72;99286.31;10116538;29;20076;-77
2022/11/21 01:14:02;;;;;;;34.47;17.95;;;;;;;-0.18;85.67;99304.91;10112069;29;20084;-77
2022/11/21 01:19:05;;;;;;;41.00;20.25;;;;;;;-0.18;85.38;99307.53;10118264;29;20451;-76
2022/11/21 01:24:10;;;;;;;39.33;19.45;;;;;;;-0.17;85.86;99307.44;10108202;29;20048;-76
2022/11/21 01:29:13;;;;;;;38.25;19.13;;;;;;;-0.13;85.51;99308.16;10097930;29;20076;-75
2022/11/21 01:34:17;;;;;;;34.17;17.77;;;;;;;-0.20;85.49;99314.69;10104307;29;20060;-77
2022/11/21 01:39:21;;;;;;;30.35;16.33;;;;;;;-0.11;85.61;99309.78;10104617;29;20057;-76
2022/11/21 01:44:26;;;;;;;27.77;14.02;;;;;;;-0.28;84.84;99312.44;10101092;29;20600;-75
2022/11/21 01:49:32;;;;;;;27.80;15.55;;;;;;;-0.44;84.93;99325.59;10117924;29;20156;-77
2022/11/21 01:54:41;;;;;;;34.42;17.25;;;;;;;-0.24;85.83;99329.00;10119984;29;20521;-78
2022/11/21 01:59:48;;;;;;;32.13;16.35;;;;;;;-0.30;84.88;99332.81;10123835;29;20084;-77
2022/11/21 02:04:53;;;;;;;32.83;16.30;;;;;;;-0.28;84.96;99323.00;10111658;29;20487;-77
2022/11/21 02:10:00;;;;;;;32.20;16.90;;;;;;;-0.34;84.81;99307.50;10102400;29;20041;-78
2022/11/21 02:15:04;;;;;;;26.88;15.35;;;;;;;-0.45;84.57;99310.69;10101026;29;20090;-77
2022/11/21 02:20:09;;;;;;;28.63;16.33;;;;;;;-0.52;84.74;99326.00;10125199;29;20040;-76
2022/11/21 02:25:17;;;;;;;30.13;15.60;;;;;;;-0.47;84.96;99324.91;10163810;29;20048;-76
2022/11/21 02:30:20;;;;;;;26.40;15.20;;;;;;;-0.54;84.62;99319.94;10135748;29;20053;-77
2022/11/21 02:35:23;;;;;;;28.17;14.60;;;;;;;-0.51;84.33;99330.34;10101770;29;20052;-78
2022/11/21 02:40:34;;;;;;;31.80;15.82;;;;;;;-0.51;85.06;99337.41;10118130;29;20080;-78
2022/11/21 02:45:40;;;;;;;32.72;16.83;;;;;;;-0.51;84.70;99335.63;10129896;29;20128;-78
2022/11/21 02:50:44;;;;;;;32.28;16.33;;;;;;;-0.52;84.69;99327.81;10113280;29;20080;-78
2022/11/21 02:55:48;;;;;;;30.67;15.57;;;;;;;-0.38;85.06;99333.22;10120249;29;20048;-78
2022/11/21 03:00:51;;;;;;;32.65;17.02;;;;;;;-0.44;84.17;99336.13;10119215;29;20101;-78
2022/11/21 03:05:54;;;;;;;30.58;15.60;;;;;;;-0.35;84.87;99327.75;10108769;29;20049;-78
2022/11/21 03:10:59;;;;;;;27.38;15.15;;;;;;;-0.31;84.67;99336.34;10118266;29;20088;-78
2022/11/21 03:16:01;;;;;;;28.52;13.98;;;;;;;-0.41;83.85;99333.38;10122087;29;20491;-78
2022/11/21 03:21:04;;;;;;;24.85;13.38;;;;;;;-0.52;83.89;99341.84;10114189;29;20043;-77
2022/11/21 03:26:08;;;;;;;28.25;14.65;;;;;;;-0.59;84.39;99329.03;10125044;29;20112;-78
2022/11/21 03:31:11;;;;;;;25.55;14.50;;;;;;;-0.48;84.40;99344.31;10121826;29;20076;-78
2022/11/21 03:36:14;;;;;;;25.35;14.13;;;;;;;-0.51;84.66;99343.53;10119886;29;20053;-78
2022/11/21 03:41:30;;;;;;;24.10;13.05;;;;;;;-0.56;84.51;99342.91;10123988;29;20700;-77
2022/11/21 03:46:35;;;;;;;24.17;13.05;;;;;;;-0.59;84.08;99358.06;10120449;29;20083;-77
2022/11/21 03:51:38;;;;;;;26.90;14.05;;;;;;;-0.79;84.32;99370.47;10113334;29;20041;-78
2022/11/21 03:56:42;;;;;;;25.52;14.35;;;;;;;-0.75;84.17;99368.53;10126077;29;20522;-79
2022/11/21 04:01:45;;;;;;;28.48;14.60;;;;;;;-0.79;83.98;99369.63;10124271;29;20451;-79
2022/11/21 04:06:48;;;;;;;27.52;14.88;;;;;;;-0.62;84.46;99363.50;10132754;29;20498;-79
2022/11/21 04:11:52;;;;;;;29.77;15.90;;;;;;;-0.58;84.32;99359.75;10117547;29;20096;-79
2022/11/21 04:16:55;;;;;;;28.55;14.63;;;;;;;-0.54;84.20;99363.94;10123910;29;20052;-78
2022/11/21 04:21:58;;;;;;;32.03;15.90;;;;;;;-0.41;85.21;99367.66;10117052;29;20072;-79
2022/11/21 04:27:02;;;;;;;33.38;17.92;;;;;;;-0.30;85.16;99378.50;10114874;29;20120;-78
2022/11/21 04:32:05;;;;;;;30.63;16.83;;;;;;;-0.31;84.69;99368.03;10110789;29;20394;-77
2022/11/21 04:37:07;;;;;;;31.95;16.55;;;;;;;-0.25;85.22;99378.25;10128417;29;20049;-75
2022/11/21 04:42:14;;;;;;;29.45;15.80;;;;;;;-0.19;84.97;99370.03;10136821;29;20151;-75
2022/11/21 04:47:17;;;;;;;29.95;16.15;;;;;;;-0.23;85.06;99376.41;10128975;29;20057;-78
2022/11/21 04:52:20;;;;;;;30.48;15.23;;;;;;;-0.29;84.54;99380.22;10119650;29;20069;-78
2022/11/21 04:57:25;;;;;;;27.38;15.60;;;;;;;-0.39;83.53;99371.06;10122426;29;20053;-77
2022/11/21 05:02:28;;;;;;;26.15;14.90;;;;;;;-0.45;84.22;99373.16;10112180;29;20049;-78
2022/11/21 05:07:31;;;;;;;30.55;15.95;;;;;;;-0.46;84.39;99364.41;10127941;29;20135;-79
2022/11/21 05:17:55;;;;;;;28.27;15.57;;;;;;;-0.51;84.60;99359.38;10128683;29;20055;-79
2022/11/21 05:22:58;;;;;;;25.80;15.13;;;;;;;-0.52;84.94;99367.38;10117107;29;20488;-78
2022/11/21 05:28:02;;;;;;;28.95;15.13;;;;;;;-0.52;85.03;99377.94;10143862;29;20120;-77
2022/11/21 05:33:05;;;;;;;28.65;15.38;;;;;;;-0.62;84.91;99372.25;10125319;29;20040;-80
2022/11/21 05:38:08;;;;;;;29.50;15.50;;;;;;;-0.72;85.08;99378.91;10122418;29;20056;-79
2022/11/21 05:48:35;;;;;;;28.25;15.27;;;;;;;-0.89;84.74;99369.22;10100237;29;20124;-77
2022/11/21 05:53:38;;;;;;;31.15;14.75;;;;;;;-0.99;84.71;99375.88;10120603;29;20140;-77
2022/11/21 05:58:42;;;;;;;27.90;15.13;;;;;;;-1.09;84.29;99377.28;10133351;29;20048;-77
2022/11/21 06:03:45;;;;;;;26.38;15.20;;;;;;;-1.18;84.74;99383.81;10117248;29;20124;-77
2022/11/21 06:08:48;;;;;;;28.52;16.08;;;;;;;-1.21;84.84;99384.84;10113168;29;20047;-77
2022/11/21 06:13:52;;;;;;;29.33;15.23;;;;;;;-1.22;85.22;99382.28;10133319;29;20060;-77
2022/11/21 06:18:55;;;;;;;28.90;16.08;;;;;;;-1.23;85.14;99381.44;10132652;29;20056;-77
2022/11/21 06:24:00;;;;;;;30.92;16.90;;;;;;;-1.25;85.22;99388.56;10130112;29;20446;-77
2022/11/21 06:29:04;;;;;;;29.38;16.20;;;;;;;-1.29;85.59;99379.09;10158289;29;20037;-76
2022/11/21 06:34:07;;;;;;;28.85;16.02;;;;;;;-1.28;85.03;99377.31;10165980;29;20053;-76
2022/11/21 06:39:10;;;;;;;31.88;15.82;;;;;;;-1.33;85.31;99385.44;10123855;29;20045;-77
2022/11/21 06:44:14;;;;;;;42.75;21.05;;;;;;;-1.36;84.71;99382.94;10118324;29;20053;-77
2022/11/21 06:49:17;;;;;;;44.42;23.65;;;;;;;-1.40;85.61;99384.88;10120180;29;20079;-79
2022/11/21 06:54:19;;;;;;;39.33;21.30;;;;;;;-1.41;85.60;99384.94;10132763;29;20120;-78
2022/11/21 06:59:24;;;;;;;33.90;19.05;;;;;;;-1.44;85.54;99385.94;10138910;29;20049;-77
2022/11/21 07:04:26;;;;;;;37.15;18.85;;;;;;;-1.37;85.36;99383.00;10128156;29;20139;-78
2022/11/21 07:09:30;;;;;;;43.38;19.48;;;;;;;-1.25;84.97;99399.09;10132034;29;20143;-78
2022/11/21 07:14:37;;;;;;;34.95;21.17;;;;;;;-0.90;84.57;99408.88;10125198;29;20045;-78
2022/11/21 07:19:40;;;;;;;14.43;9.90;;;;;;;-0.33;86.21;99398.91;10122667;29;20037;-77
2022/11/21 07:24:43;;;;;;;23.08;12.07;;;;;;;0.20;84.31;99397.88;10122818;29;20495;-77
2022/11/21 07:29:47;;;;;;;26.98;14.98;;;;;;;0.21;83.81;99406.66;10124272;29;20072;-78
2022/11/21 07:34:50;;;;;;;39.50;19.90;;;;;;;-0.09;83.46;99405.56;10113448;29;20081;-78
2022/11/21 07:39:52;;;;;;;35.53;17.95;;;;;;;-0.28;83.74;99394.25;10132221;29;20310;-78
2022/11/21 07:44:57;;;;;;;41.30;20.45;;;;;;;-0.31;84.37;99395.25;10109001;29;20116;-78
2022/11/21 07:49:59;;;;;;;41.42;20.48;;;;;;;-0.12;84.20;99389.88;10125957;29;20107;-78
2022/11/21 07:55:03;;;;;;;39.97;22.25;;;;;;;0.22;84.34;99389.88;10126905;29;20139;-78
2022/11/21 08:00:09;;;;;;;34.15;18.15;;;;;;;0.58;84.08;99390.50;10115573;29;20131;-77
2022/11/21 08:05:12;;;;;;;34.20;18.88;;;;;;;0.85;83.63;99392.56;10149547;29;20049;-77
2022/11/21 08:10:16;;;;;;;34.92;18.70;;;;;;;1.08;82.21;99385.09;10121989;29;20127;-78
2022/11/21 08:15:20;;;;;;;32.28;17.63;;;;;;;1.11;80.83;99387.56;10114273;29;20069;-78
2022/11/21 08:20:23;;;;;;;35.22;17.63;;;;;;;1.34;81.54;99394.97;10108819;29;20459;-78
2022/11/21 08:25:25;;;;;;;32.78;17.90;;;;;;;1.44;80.92;99388.22;10121926;29;20048;-78
2022/11/21 08:30:30;;;;;;;34.08;17.75;;;;;;;1.44;79.34;99398.81;10108427;29;20495;-78
2022/11/21 08:35:36;;;;;;;31.83;16.10;;;;;;;1.69;79.80;99400.84;10123179;29;20047;-78
2022/11/21 08:40:40;;;;;;;31.45;18.40;;;;;;;1.99;79.65;99389.34;10107901;29;20448;-77
2022/11/21 08:45:44;;;;;;;31.67;19.02;;;;;;;1.70;75.21;99399.03;10113227;29;20049;-77
2022/11/21 08:50:47;;;;;;;28.40;15.07;;;;;;;2.06;76.91;99392.47;10123478;29;20051;-77
2022/11/21 08:55:50;;;;;;;31.02;17.05;;;;;;;2.24;77.21;99388.66;10128290;29;20138;-77
2022/11/21 09:00:54;;;;;;;38.40;20.15;;;;;;;2.80;74.86;99388.72;10118827;29;20429;-78
2022/11/21 09:05:57;;;;;;;29.92;16.73;;;;;;;2.92;72.63;99379.94;10098486;29;20059;-78
2022/11/21 09:11:04;;;;;;;27.70;16.45;;;;;;;3.13;75.32;99372.41;10118629;29;20187;-77
2022/11/21 09:21:32;;;;;;;30.15;16.92;;;;;;;2.90;72.60;99373.03;10104266;29;20210;-78
2022/11/21 09:26:34;;;;;;;29.23;17.02;;;;;;;2.97;71.34;99372.53;10071901;29;20087;-78
2022/11/21 09:31:38;;;;;;;35.03;18.40;;;;;;;3.11;71.93;99373.44;10125610;29;20071;-78
2022/11/21 09:36:41;;;;;;;34.05;18.98;;;;;;;3.55;74.97;99370.47;10088226;29;20064;-79
2022/11/21 09:41:56;;;;;;;29.85;17.60;;;;;;;3.76;69.93;99369.94;10076343;29;21237;-78
2022/11/21 09:47:10;;;;;;;33.70;19.52;;;;;;;3.75;71.29;99362.94;10077234;29;20073;-79
2022/11/21 09:52:17;;;;;;;37.03;19.00;;;;;;;4.04;71.06;99364.41;10067526;29;20084;-79
2022/11/21 09:57:24;;;;;;;38.25;20.73;;;;;;;4.44;69.12;99352.75;10081835;29;20217;-79
2022/11/21 10:02:31;;;;;;;48.97;23.38;;;;;;;4.14;70.80;99356.63;10090632;29;20212;-79
2022/11/21 10:07:36;;;;;;;44.50;20.63;;;;;;;3.19;69.90;99366.69;10085102;29;20131;-78
2022/11/21 10:12:51;;;;;;;34.03;17.17;;;;;;;2.63;72.80;99363.25;10097058;29;20057;-78
2022/11/21 10:18:13;;;;;;;39.35;17.67;;;;;;;2.95;74.43;99341.75;10103508;29;20052;-79
2022/11/21 10:23:35;;;;;;;32.28;16.92;;;;;;;3.01;73.24;99344.00;10094945;29;20049;-79
2022/11/21 10:28:44;;;;;;;40.73;18.00;;;;;;;2.34;72.83;99323.56;10091128;29;20048;-78
2022/11/21 10:33:52;;;;;;;37.92;17.80;;;;;;;2.46;74.33;99321.06;10072971;29;20045;-78
2022/11/21 10:38:59;;;;;;;39.10;17.20;;;;;;;2.76;71.70;99307.63;10095071;29;20041;-80
2022/11/21 10:49:34;;;;;;;38.92;17.85;;;;;;;3.32;72.47;99303.00;10070331;29;20061;-78
2022/11/21 10:55:03;;;;;;;35.65;14.98;;;;;;;2.97;72.18;99308.88;10089185;29;20029;-78
2022/11/21 11:00:16;;;;;;;29.35;14.52;;;;;;;2.53;74.52;99291.44;10114706;29;20074;-77
2022/11/21 11:05:23;;;;;;;28.40;14.40;;;;;;;3.69;74.92;99284.53;10109705;29;20049;-79
2022/11/21 11:10:26;;;;;;;25.88;13.63;;;;;;;6.11;66.25;99276.19;10071982;29;20646;-78
2022/11/21 11:15:30;;;;;;;27.73;13.20;;;;;;;4.62;65.48;99269.81;10077857;29;20053;-78
2022/11/21 11:20:39;;;;;;;24.83;13.23;;;;;;;5.13;69.88;99254.53;10071539;29;20434;-78
2022/11/21 11:25:47;;;;;;;24.23;13.27;;;;;;;7.29;66.35;99242.44;10083660;29;20049;-79
2022/11/21 11:30:51;;;;;;;26.35;13.68;;;;;;;7.06;65.81;99237.22;10084028;29;20057;-78
2022/11/21 11:36:02;;;;;;;25.70;13.45;;;;;;;7.40;66.11;99231.66;10100910;29;20059;-78
2022/11/21 11:41:19;;;;;;;23.05;13.30;;;;;;;8.23;68.14;99212.84;10082094;29;20061;-79
2022/11/21 11:52:23;;;;;;;20.60;11.57;;;;;;;8.35;65.13;99211.75;9929253;29;20059;-78
2022/11/21 11:57:30;;;;;;;20.10;11.48;;;;;;;7.57;64.12;99197.28;10036323;29;20056;-78
2022/11/21 12:02:46;;;;;;;21.88;12.05;;;;;;;7.75;64.59;99202.88;10088104;29;20052;-78
2022/11/21 12:08:03;;;;;;;21.25;12.23;;;;;;;8.24;67.30;99187.78;10071040;29;21183;-79
2022/11/21 12:13:28;;;;;;;19.48;11.82;;;;;;;8.31;59.27;99168.38;10080841;29;20068;-78
2022/11/21 12:18:36;;;;;;;19.25;12.25;;;;;;;7.71;60.82;99181.75;10084221;29;20060;-78
2022/11/21 12:23:46;;;;;;;19.40;11.10;;;;;;;6.78;61.96;99166.59;10105120;29;20053;-78
2022/11/21 12:29:03;;;;;;;19.88;12.07;;;;;;;6.38;60.44;99164.59;10069988;29;21052;-78
2022/11/21 12:34:20;;;;;;;21.65;13.23;;;;;;;5.48;61.14;99156.78;10075360;29;20053;-78
2022/11/21 12:39:58;;;;;;;22.95;13.63;;;;;;;5.02;62.11;99133.81;10089035;29;20061;-78
2022/11/21 12:45:27;;;;;;;25.77;12.95;;;;;;;5.18;65.70;99143.22;10094980;29;20123;-78
2022/11/21 12:56:10;;;;;;;22.50;13.03;;;;;;;4.94;64.52;99116.72;10098567;29;20059;-78
2022/11/21 13:01:22;;;;;;;19.40;11.73;;;;;;;4.51;64.84;99107.53;10086951;29;20053;-78
2022/11/21 13:06:27;;;;;;;18.55;10.02;;;;;;;4.66;65.60;99102.84;10067464;29;20068;-78
2022/11/21 13:11:58;;;;;;;21.55;11.50;;;;;;;4.81;66.54;99099.03;10081067;29;20049;-78
2022/11/21 13:17:14;;;;;;;19.15;10.50;;;;;;;5.64;63.91;99091.63;10069129;29;20130;-78
2022/11/21 13:22:48;;;;;;;22.02;11.40;;;;;;;4.88;65.62;99094.06;10078474;29;20596;-78
2022/11/21 13:27:53;;;;;;;19.90;11.75;;;;;;;3.24;67.86;99091.22;10075949;29;20057;-78
2022/11/21 13:32:56;;;;;;;25.95;12.48;;;;;;;2.27;70.90;99101.44;10073562;29;20150;-78
2022/11/21 13:38:00;;;;;;;28.27;13.10;;;;;;;1.86;73.44;99087.34;10081463;29;20224;-78
2022/11/21 13:43:25;;;;;;;26.17;13.45;;;;;;;1.75;73.27;99087.19;10086370;29;20060;-78
2022/11/21 13:49:01;;;;;;;26.90;14.38;;;;;;;1.34;74.13;99087.22;10073667;29;20182;-78
2022/11/21 13:54:36;;;;;;;28.13;14.10;;;;;;;1.11;75.11;99073.66;10088350;29;20049;-78
2022/11/21 13:59:55;;;;;;;28.08;14.07;;;;;;;1.13;76.31;99060.34;10074337;29;20079;-78
2022/11/21 14:05:19;;;;;;;32.25;15.45;;;;;;;1.46;76.40;99054.69;10071569;29;20052;-78
2022/11/21 14:10:33;;;;;;;30.05;14.50;;;;;;;1.48;75.90;99051.00;10082427;29;20430;-78
2022/11/21 14:15:48;;;;;;;32.78;15.10;;;;;;;1.53;76.57;99045.38;10093630;29;20060;-77
2022/11/21 14:20:55;;;;;;;28.10;14.23;;;;;;;1.37;76.26;99036.75;10076668;29;20056;-78
2022/11/21 14:26:01;;;;;;;27.58;14.38;;;;;;;1.19;76.36;99028.22;10076367;29;20487;-77
2022/11/21 14:31:06;;;;;;;25.95;13.40;;;;;;;1.21;76.90;99026.31;10136726;29;20112;-77
2022/11/21 14:36:13;;;;;;;30.92;13.77;;;;;;;1.06;77.26;99018.38;10155571;29;20044;-77
2022/11/21 14:41:26;;;;;;;29.38;14.32;;;;;;;1.19;77.79;99013.19;10083942;29;20515;-78
2022/11/21 14:46:32;;;;;;;33.42;16.48;;;;;;;1.13;77.65;98996.88;10081219;29;20056;-78
2022/11/21 14:51:36;;;;;;;32.58;15.40;;;;;;;1.02;78.26;98989.63;10076374;29;20052;-77
2022/11/21 14:56:41;;;;;;;34.53;18.38;;;;;;;1.07;78.68;98976.97;10074605;29;20799;-78
2022/11/21 15:01:56;;;;;;;37.78;17.42;;;;;;;1.11;79.29;98972.31;10062745;29;20051;-78
2022/11/21 15:06:59;;;;;;;35.88;17.08;;;;;;;1.06;78.95;98957.56;10074401;29;20456;-77
2022/11/21 15:12:06;;;;;;;35.60;15.90;;;;;;;1.08;79.32;98948.72;10088357;29;20052;-77
2022/11/21 15:17:19;;;;;;;30.42;15.15;;;;;;;1.18;79.38;98939.19;10075179;29;20479;-77
2022/11/21 15:22:30;;;;;;;33.92;15.27;;;;;;;1.02;79.62;98942.84;10085429;29;20730;-77
2022/11/21 15:27:35;;;;;;;33.08;15.52;;;;;;;1.10;80.03;98933.56;10089695;29;20619;-77
2022/11/21 15:33:00;;;;;;;36.50;16.15;;;;;;;1.04;79.67;98924.22;10072304;29;20500;-77
2022/11/21 15:38:13;;;;;;;37.33;18.13;;;;;;;0.88;80.27;98924.41;10074661;29;20049;-77
2022/11/21 15:43:30;;;;;;;;;;;;;;;0.82;80.45;98919.47;10075468;29;20045;-78
2022/11/21 15:48:35;;;;;;;33.53;16.75;;;;;;;0.75;80.64;98918.19;10067693;29;19934;-77
2022/11/21 15:53:37;;;;;;;30.75;15.90;;;;;;;0.70;80.84;98907.06;10082499;29;20053;-78
2022/11/21 15:58:42;;;;;;;33.92;16.40;;;;;;;0.52;81.07;98901.13;10089818;29;20049;-78
2022/11/21 16:03:48;;;;;;;31.00;15.40;;;;;;;0.47;81.54;98887.41;10078396;29;20068;-78
2022/11/21 16:08:51;;;;;;;35.53;17.90;;;;;;;0.51;81.58;98884.44;10092914;29;20056;-78
2022/11/21 16:13:57;;;;;;;34.45;16.98;;;;;;;0.42;81.85;98873.63;10081309;29;20086;-78
2022/11/21 16:19:01;;;;;;;34.38;16.77;;;;;;;0.39;81.92;98869.38;10075848;29;21293;-78
2022/11/21 16:24:04;;;;;;;32.53;16.20;;;;;;;0.23;82.09;98855.44;10071298;29;20065;-77
2022/11/21 16:29:10;;;;;;;36.72;17.58;;;;;;;0.23;82.63;98855.44;10078948;29;20503;-78
2022/11/21 16:34:18;;;;;;;40.72;19.98;;;;;;;0.11;82.92;98857.91;10066840;29;20255;-78
2022/11/21 16:39:21;;;;;;;37.17;19.45;;;;;;;-0.00;83.26;98851.56;10079979;29;20068;-78
2022/11/21 16:44:24;;;;;;;37.05;16.73;;;;;;;0.11;83.00;98836.78;10081210;29;20037;-78
2022/11/21 16:49:28;;;;;;;41.30;19.35;;;;;;;0.03;83.08;98823.22;10105836;29;20135;-78
2022/11/21 16:54:32;;;;;;;43.03;19.58;;;;;;;0.16;82.81;98821.50;10073154;29;20136;-78
2022/11/21 16:59:35;;;;;;;35.42;17.73;;;;;;;0.05;82.80;98802.81;10078763;29;20049;-78
2022/11/21 17:04:39;;;;;;;43.22;19.77;;;;;;;0.08;82.98;98791.22;10083508;29;20049;-78
2022/11/21 17:09:42;;;;;;;87.80;33.58;;;;;;;-0.06;83.28;98786.81;10073109;29;20057;-78
2022/11/21 17:14:46;;;;;;;75.28;32.40;;;;;;;-0.01;83.44;98775.97;10123344;29;20063;-77
2022/11/21 17:19:53;;;;;;;51.42;23.90;;;;;;;0.11;84.12;98768.13;10122509;29;20072;-78
2022/11/21 17:24:56;;;;;;;58.85;26.42;;;;;;;0.08;84.19;98762.19;10094551;29;20056;-79
2022/11/21 17:29:58;;;;;;;56.17;25.52;;;;;;;0.17;84.57;98759.81;10114740;29;20056;-78
2022/11/21 17:35:03;;;;;;;65.15;27.60;;;;;;;0.30;84.90;98746.69;10083399;29;20459;-78
2022/11/21 17:40:10;;;;;;;63.35;29.17;;;;;;;0.34;85.06;98739.38;10069313;29;20140;-78
2022/11/21 17:45:13;;;;;;;61.80;25.95;;;;;;;0.42;85.03;98709.84;10076593;29;20056;-78
2022/11/21 17:50:17;;;;;;;67.25;26.65;;;;;;;0.35;85.80;98704.94;10075731;29;20057;-78
2022/11/21 17:55:20;;;;;;;70.82;27.95;;;;;;;0.54;85.97;98691.38;10075069;29;20052;-78
2022/11/21 18:00:23;;;;;;;68.78;30.80;;;;;;;0.44;86.10;98673.59;10082114;29;20557;-78
2022/11/21 18:05:27;;;;;;;58.60;25.92;;;;;;;0.56;86.61;98675.41;10076801;29;20064;-78
2022/11/21 18:10:30;;;;;;;54.25;24.50;;;;;;;0.47;87.21;98681.31;10076222;29;20052;-78
2022/11/21 18:15:48;;;;;;;51.63;21.90;;;;;;;0.73;87.11;98653.97;10078933;29;20135;-78
2022/11/21 18:20:52;;;;;;;53.90;21.17;;;;;;;0.73;86.83;98656.63;10072199;29;20608;-78
2022/11/21 18:25:55;;;;;;;52.13;21.35;;;;;;;0.84;86.46;98651.44;10093735;29;20517;-78
2022/11/21 18:31:06;;;;;;;52.70;21.80;;;;;;;0.90;86.65;98652.81;10075339;29;20048;-78
2022/11/21 18:36:12;;;;;;;53.17;21.02;;;;;;;0.82;87.50;98660.44;10141832;29;20045;-78
2022/11/21 18:41:16;;;;;;;60.38;25.58;;;;;;;0.95;87.05;98647.22;10121113;29;20475;-78
2022/11/21 18:46:20;;;;;;;61.17;26.05;;;;;;;0.87;87.77;98641.63;10086291;29;20060;-78
2022/11/21 18:51:26;;;;;;;50.78;21.83;;;;;;;1.10;87.01;98630.31;10080963;29;20052;-78
2022/11/21 18:56:29;;;;;;;58.38;24.98;;;;;;;1.08;86.92;98626.91;10084956;29;20037;-78
2022/11/21 19:01:33;;;;;;;70.68;28.90;;;;;;;1.17;87.08;98636.00;10094713;29;20519;-78
2022/11/21 19:06:37;;;;;;;68.32;24.75;;;;;;;1.08;86.92;98628.72;10071471;29;20060;-78
2022/11/21 19:11:40;;;;;;;54.17;21.60;;;;;;;1.13;86.55;98618.69;10081789;29;20048;-77
2022/11/21 19:16:43;;;;;;;63.05;24.90;;;;;;;1.19;86.99;98621.72;10071995;29;20083;-78
2022/11/21 19:21:47;;;;;;;62.38;23.20;;;;;;;1.23;86.72;98612.59;10079614;29;20056;-78
2022/11/21 19:26:50;;;;;;;62.83;24.67;;;;;;;1.30;86.72;98606.91;10068448;29;20695;-78
2022/11/21 19:31:53;;;;;;;65.15;25.00;;;;;;;1.34;86.49;98637.47;10073358;29;20041;-78
2022/11/21 19:36:57;;;;;;;53.70;21.50;;;;;;;1.37;86.45;98651.34;10063416;29;20418;-78
2022/11/21 19:42:00;;;;;;;58.63;22.10;;;;;;;1.36;86.18;98624.97;10078903;29;20056;-78
2022/11/21 19:47:02;;;;;;;58.47;26.05;;;;;;;1.43;85.77;98613.84;10070072;29;20088;-79
2022/11/21 19:52:06;;;;;;;59.70;22.92;;;;;;;1.48;86.11;98618.78;10079342;29;20071;-79
2022/11/21 19:57:09;;;;;;;55.75;23.85;;;;;;;1.49;85.89;98626.63;10082574;29;20068;-79
2022/11/21 20:02:17;;;;;;;54.15;24.67;;;;;;;1.53;85.60;98623.78;10090115;29;20387;-78
2022/11/21 20:07:22;;;;;;;56.28;24.52;;;;;;;1.56;85.72;98621.75;10085729;29;20044;-79
2022/11/21 20:12:24;;;;;;;53.83;24.30;;;;;;;1.63;85.57;98623.00;10080787;29;20186;-78
2022/11/21 20:17:27;;;;;;;58.35;26.98;;;;;;;1.45;85.34;98619.91;10086722;29;20506;-78
2022/11/21 20:22:32;;;;;;;116.00;47.55;;;;;;;1.49;85.49;98629.28;10094342;29;20049;-78
2022/11/21 20:27:34;;;;;;;60.00;27.50;;;;;;;1.46;85.60;98611.00;10084718;29;20064;-78
2022/11/21 20:32:38;;;;;;;57.38;24.92;;;;;;;1.57;85.80;98617.31;10078328;29;20067;-78
2022/11/21 20:37:43;;;;;;;57.60;25.55;;;;;;;1.27;86.58;98610.59;10077076;29;20056;-79
2022/11/21 20:42:45;;;;;;;42.53;20.30;;;;;;;1.49;86.06;98608.13;10088424;29;20049;-78
2022/11/21 20:47:48;;;;;;;47.38;23.05;;;;;;;1.49;85.95;98605.47;10091804;29;20051;-79
2022/11/21 20:52:52;;;;;;;47.83;23.15;;;;;;;1.39;86.75;98591.19;10061255;29;20051;-79
2022/11/21 20:58:15;;;;;;;47.53;23.73;;;;;;;1.45;86.13;98579.34;10085009;29;21904;-79
2022/11/21 21:03:18;;;;;;;43.03;21.35;;;;;;;1.58;85.50;98587.25;10079338;29;20105;-79
2022/11/21 21:08:23;;;;;;;43.28;20.38;;;;;;;1.66;85.53;98588.38;10084016;29;20052;-79
2022/11/21 21:13:26;;;;;;;44.78;23.23;;;;;;;1.58;85.37;98571.38;10101620;29;20119;-78
2022/11/21 21:18:32;;;;;;;64.13;28.23;;;;;;;1.66;85.13;98576.94;10072968;29;20052;-79
2022/11/21 21:23:36;;;;;;;50.28;23.38;;;;;;;1.65;85.64;98562.03;10080884;29;20057;-78
2022/11/21 21:28:39;;;;;;;46.90;23.30;;;;;;;1.69;84.66;98548.44;10090598;29;20052;-77
2022/11/21 21:33:42;;;;;;;43.38;21.88;;;;;;;1.66;85.21;98539.88;10100066;29;20694;-78
2022/11/21 21:38:50;;;;;;;45.47;22.48;;;;;;;1.80;85.05;98536.22;10089382;29;20136;-77
2022/11/21 21:43:54;;;;;;;51.97;24.60;;;;;;;1.80;84.92;98528.28;10068298;29;20057;-78
2022/11/21 21:48:57;;;;;;;42.70;19.88;;;;;;;1.85;84.94;98511.09;10073358;29;20159;-77
2022/11/21 21:54:02;;;;;;;38.53;19.65;;;;;;;1.67;85.07;98502.72;10103197;29;20060;-78
2022/11/21 21:59:04;;;;;;;37.42;21.25;;;;;;;1.56;85.22;98501.81;10118938;29;20077;-78
2022/11/21 22:04:07;;;;;;;38.35;18.10;;;;;;;1.78;84.98;98488.66;10110825;29;20045;-78
2022/11/21 22:09:11;;;;;;;37.75;19.52;;;;;;;1.45;85.56;98484.94;10118149;29;20068;-79
2022/11/21 22:14:15;;;;;;;39.35;19.05;;;;;;;1.70;84.69;98473.38;10121729;29;20128;-79
2022/11/21 22:19:19;;;;;;;37.85;19.05;;;;;;;1.45;85.22;98466.44;10124878;29;20218;-77
2022/11/21 22:24:23;;;;;;;36.47;18.98;;;;;;;1.69;84.63;98461.09;10120144;29;20075;-80
2022/11/21 22:29:28;;;;;;;37.47;20.50;;;;;;;1.85;84.14;98465.25;10109306;29;20049;-80
2022/11/21 22:34:31;;;;;;;32.33;18.88;;;;;;;1.72;84.23;98474.09;10115928;29;20140;-79
2022/11/21 22:39:36;;;;;;;33.05;18.33;;;;;;;1.76;84.29;98452.72;10113435;29;20439;-80
2022/11/21 22:44:38;;;;;;;30.13;17.95;;;;;;;1.90;83.60;98452.50;10129085;29;20079;-79
2022/11/21 22:49:41;;;;;;;32.13;17.63;;;;;;;1.91;83.72;98444.44;10123168;29;20110;-78
2022/11/21 22:54:45;;;;;;;31.65;17.83;;;;;;;1.92;83.47;98442.63;10119335;29;20080;-80
2022/11/21 22:59:48;;;;;;;33.03;18.63;;;;;;;1.78;83.45;98434.88;10116440;29;20060;-81
2022/11/21 23:04:51;;;;;;;31.90;18.23;;;;;;;1.75;83.22;98424.53;10116346;29;20083;-81
2022/11/21 23:09:55;;;;;;;26.35;14.45;;;;;;;1.78;82.85;98425.13;10115112;29;20483;-79
2022/11/21 23:14:59;;;;;;;28.77;16.42;;;;;;;1.82;82.96;98420.47;10120190;29;20131;-79
2022/11/21 23:20:02;;;;;;;28.98;15.95;;;;;;;1.94;82.81;98416.88;10122260;29;20079;-78
2022/11/21 23:25:07;;;;;;;30.40;16.27;;;;;;;1.90;82.66;98426.88;10119214;29;20057;-80
2022/11/21 23:30:10;;;;;;;23.70;13.95;;;;;;;1.79;82.78;98421.56;10125604;29;20071;-81
2022/11/21 23:35:13;;;;;;;27.50;15.15;;;;;;;1.91;82.75;98422.41;10129963;29;20069;-77
2022/11/21 23:40:17;;;;;;;26.58;14.98;;;;;;;1.95;82.61;98426.53;10136049;29;20053;-79
2022/11/21 23:45:20;;;;;;;29.45;14.15;;;;;;;1.86;82.65;98430.69;10138101;29;20057;-81
2022/11/21 23:50:23;;;;;;;22.27;12.07;;;;;;;1.82;82.59;98436.34;10134171;29;20052;-80
2022/11/21 23:55:27;;;;;;;23.15;13.60;;;;;;;1.82;82.70;98428.41;10128715;29;20099;-80
